Time;durP1;ratioP1;P1;durP2;ratioP2;P2;SDS_P1;SDS_P2;PMS_P1;PMS_P2;Temp;Humidity;BMP_temperature;BMP_pressure;BME280_temperature;BME280_humidity;BME280_pressure;Samples;Min_cycle;Max_cycle;Signal;HPM_P1;HPM_P2
2022/03/30 00:01:33;;;;;;;0.60;0.43;;;11.80;99.90;;;;;;5018231;28;20472;-78
2022/03/30 00:04:01;;;;;;;3.10;2.90;;;11.90;99.90;;;;;;5019313;28;20445;-78
2022/03/30 00:06:29;;;;;;;4.00;2.67;;;12.10;99.90;;;;;;5020972;28;20516;-78
2022/03/30 00:08:58;;;;;;;3.90;2.40;;;11.80;99.90;;;;;;5020265;28;20533;-77
2022/03/30 00:11:26;;;;;;;2.60;1.53;;;;;;;;;;5020655;28;20459;-77
2022/03/30 00:13:56;;;;;;;6.33;4.27;;;11.70;99.90;;;;;;5020305;28;20494;-77
2022/03/30 00:16:25;;;;;;;1.50;1.40;;;11.70;99.90;;;;;;5026907;28;20461;-78
2022/03/30 00:18:53;;;;;;;1.33;0.73;;;11.60;99.90;;;;;;5037677;28;20542;-79
2022/03/30 00:21:21;;;;;;;2.63;1.23;;;11.60;99.90;;;;;;5038117;28;20464;-78
2022/03/30 00:23:49;;;;;;;3.80;2.47;;;11.60;99.90;;;;;;5038096;28;20984;-77
2022/03/30 00:26:18;;;;;;;5.80;3.30;;;11.70;99.90;;;;;;5039037;28;20441;-76
2022/03/30 00:28:46;;;;;;;1.47;0.97;;;11.60;99.90;;;;;;5043507;28;20495;-77
2022/03/30 00:31:17;;;;;;;4.87;3.93;;;11.50;99.90;;;;;;5042987;28;20535;-78
2022/03/30 00:33:48;;;;;;;2.93;1.90;;;11.50;99.90;;;;;;5051309;28;20450;-77
2022/03/30 00:36:16;;;;;;;6.47;4.37;;;11.50;99.90;;;;;;5062979;28;20434;-77
2022/03/30 00:38:44;;;;;;;8.30;3.80;;;11.50;99.90;;;;;;5062188;28;21086;-77
2022/03/30 00:41:12;;;;;;;1.33;1.23;;;11.50;99.90;;;;;;5057893;28;20438;-77
2022/03/30 00:43:41;;;;;;;1.97;0.87;;;11.40;99.90;;;;;;5054679;28;20434;-78
2022/03/30 00:46:12;;;;;;;4.20;1.47;;;11.40;99.90;;;;;;5055802;28;20442;-77
2022/03/30 00:48:40;;;;;;;2.63;1.23;;;11.30;99.90;;;;;;5038346;28;20985;-78
2022/03/30 00:51:08;;;;;;;0.87;0.87;;;11.30;99.90;;;;;;5054414;28;20529;-78
2022/03/30 00:53:35;;;;;;;1.53;1.27;;;11.30;99.90;;;;;;5053674;28;20453;-79
2022/03/30 00:56:05;;;;;;;8.43;2.97;;;11.40;99.90;;;;;;5054473;28;20496;-78
2022/03/30 00:58:34;;;;;;;1.90;1.33;;;11.30;99.90;;;;;;5055171;28;20474;-77
2022/03/30 01:01:04;;;;;;;1.83;1.60;;;11.30;99.90;;;;;;5054710;28;20468;-78
2022/03/30 01:03:32;;;;;;;1.13;1.03;;;11.20;99.90;;;;;;5054545;28;20444;-77
2022/03/30 01:06:00;;;;;;;0.97;0.87;;;11.20;99.90;;;;;;5054624;28;20444;-78
2022/03/30 01:08:28;;;;;;;1.80;1.70;;;11.20;99.90;;;;;;5053364;28;20448;-78
2022/03/30 01:10:56;;;;;;;0.70;0.60;;;11.10;99.90;;;;;;5038740;28;20463;-77
2022/03/30 01:13:24;;;;;;;2.73;2.63;;;11.10;99.90;;;;;;5034913;28;20850;-78
2022/03/30 01:15:53;;;;;;;4.23;2.83;;;11.10;99.90;;;;;;5040710;28;20470;-78
2022/03/30 01:18:22;;;;;;;7.37;4.63;;;11.10;99.90;;;;;;5048211;28;20458;-78
2022/03/30 01:20:52;;;;;;;5.70;3.00;;;11.10;99.90;;;;;;5043029;28;20453;-78
2022/03/30 01:23:20;;;;;;;1.57;0.87;;;11.00;99.90;;;;;;5057426;28;20442;-77
2022/03/30 01:25:48;;;;;;;3.53;3.30;;;11.00;99.90;;;;;;5048629;28;20440;-77
2022/03/30 01:28:16;;;;;;;5.97;1.37;;;10.90;99.90;;;;;;5040304;28;20461;-78
2022/03/30 01:33:32;;;;;;;11.20;5.97;;;10.80;99.90;;;;;;5054900;28;20446;-77
2022/03/30 01:36:01;;;;;;;0.70;0.30;;;;;;;;;;5054085;28;20482;-78
2022/03/30 01:38:30;;;;;;;2.33;1.80;;;;;;;;;;5054639;28;20584;-77
2022/03/30 01:40:57;;;;;;;6.40;3.20;;;10.70;99.90;;;;;;5053740;28;21055;-77
2022/03/30 01:43:28;;;;;;;3.17;1.20;;;10.70;99.90;;;;;;5051760;28;20484;-76
2022/03/30 01:45:56;;;;;;;2.80;1.80;;;10.70;99.90;;;;;;5033031;28;20938;-78
2022/03/30 01:48:24;;;;;;;3.80;2.43;;;10.70;99.90;;;;;;5032714;28;20447;-77
2022/03/30 01:50:52;;;;;;;4.23;3.40;;;10.70;99.90;;;;;;5035163;28;20459;-76
2022/03/30 01:53:21;;;;;;;5.30;2.10;;;10.70;99.90;;;;;;5034091;28;20542;-78
2022/03/30 01:55:49;;;;;;;9.03;5.00;;;10.60;99.90;;;;;;5033269;28;20474;-77
2022/03/30 01:58:18;;;;;;;2.10;1.90;;;10.60;99.90;;;;;;5037069;28;20447;-76
2022/03/30 02:00:46;;;;;;;2.83;2.63;;;10.60;99.90;;;;;;5053815;28;20454;-78
2022/03/30 02:03:14;;;;;;;3.70;3.13;;;10.60;99.90;;;;;;5053053;28;20443;-77
2022/03/30 02:05:43;;;;;;;11.33;1.30;;;;;;;;;;5045237;28;20529;-78
2022/03/30 02:08:11;;;;;;;0.60;0.10;;;10.60;99.90;;;;;;5052994;28;20477;-78
2022/03/30 02:10:40;;;;;;;1.60;1.37;;;10.60;99.90;;;;;;5053843;28;20453;-78
2022/03/30 02:13:08;;;;;;;2.77;1.13;;;10.60;99.90;;;;;;5046417;28;20455;-77
2022/03/30 02:15:36;;;;;;;13.13;1.50;;;10.60;99.90;;;;;;5033792;28;20532;-78
2022/03/30 02:18:06;;;;;;;0.90;0.70;;;10.50;1.00;;;;;;5034056;28;20474;-78
2022/03/30 02:20:34;;;;;;;4.10;2.50;;;10.50;1.00;;;;;;5035937;28;20476;-77
2022/03/30 02:23:02;;;;;;;0.60;0.10;;;10.60;1.00;;;;;;5051935;28;20887;-77
2022/03/30 02:25:31;;;;;;;0.70;0.50;;;;;;;;;;5055086;28;20507;-77
2022/03/30 02:28:00;;;;;;;0.60;0.10;;;10.60;1.00;;;;;;5043664;28;20911;-77
2022/03/30 02:30:28;;;;;;;3.80;3.10;;;10.60;1.00;;;;;;5038481;28;20470;-77
2022/03/30 02:32:57;;;;;;;0.77;0.77;;;10.70;1.00;;;;;;5034226;28;20458;-77
2022/03/30 02:35:25;;;;;;;2.97;1.80;;;10.40;1.00;;;;;;5040511;28;20492;-76
2022/03/30 02:37:55;;;;;;;0.60;0.10;;;10.60;1.00;;;;;;5053154;28;20453;-78
2022/03/30 02:40:24;;;;;;;5.17;2.50;;;10.60;1.00;;;;;;5052772;28;20476;-77
2022/03/30 02:42:53;;;;;;;0.60;0.20;;;10.60;1.00;;;;;;5052351;28;20431;-78
2022/03/30 02:45:23;;;;;;;0.60;0.10;;;10.60;1.00;;;;;;5052216;28;20788;-78
2022/03/30 02:50:36;;;;;;;7.83;3.37;;;10.60;1.00;;;;;;5037591;28;20463;-77
2022/03/30 02:53:04;;;;;;;9.40;1.20;;;10.50;1.00;;;;;;5032057;28;20447;-75
2022/03/30 02:55:32;;;;;;;7.33;1.77;;;10.50;1.00;;;;;;5031195;28;20479;-77
2022/03/30 02:58:00;;;;;;;0.60;0.30;;;10.50;1.00;;;;;;5034854;28;20449;-78
2022/03/30 03:00:29;;;;;;;0.60;0.20;;;10.40;1.00;;;;;;5036505;28;20479;-76
2022/03/30 03:02:57;;;;;;;9.40;6.83;;;10.40;1.00;;;;;;5035149;28;20454;-74
2022/03/30 03:05:27;;;;;;;4.10;1.93;;;10.40;1.00;;;;;;5057150;28;20490;-76
2022/03/30 03:07:55;;;;;;;0.60;0.20;;;10.40;1.00;;;;;;5056958;28;20477;-77
2022/03/30 03:10:23;;;;;;;0.67;0.47;;;10.30;1.00;;;;;;5052437;28;21007;-77
2022/03/30 03:12:52;;;;;;;3.30;3.10;;;10.30;1.00;;;;;;5052385;28;20453;-76
2022/03/30 03:15:19;;;;;;;0.97;0.53;;;10.30;1.00;;;;;;5052999;28;20945;-77
2022/03/30 03:17:49;;;;;;;5.47;2.80;;;10.30;1.00;;;;;;5048949;28;20454;-77
2022/03/30 03:20:17;;;;;;;2.60;2.00;;;10.30;1.00;;;;;;5032270;28;20486;-77
2022/03/30 03:22:45;;;;;;;5.03;4.53;;;;;;;;;;5032939;28;20527;-76
2022/03/30 03:25:14;;;;;;;2.97;2.77;;;10.10;1.00;;;;;;5032515;28;20451;-76
2022/03/30 03:27:42;;;;;;;3.07;2.73;;;10.10;1.00;;;;;;5032537;28;20550;-77
2022/03/30 03:30:13;;;;;;;2.17;1.97;;;10.10;1.00;;;;;;5034519;28;20485;-77
2022/03/30 03:32:41;;;;;;;1.23;1.13;;;10.10;1.00;;;;;;5039602;28;20780;-76
2022/03/30 03:35:10;;;;;;;19.27;7.63;;;10.10;1.00;;;;;;5051219;28;20450;-77
2022/03/30 03:37:38;;;;;;;0.60;0.37;;;10.10;1.00;;;;;;5050762;28;20485;-77
2022/03/30 03:40:08;;;;;;;3.37;3.17;;;10.10;1.00;;;;;;5055595;28;20485;-77
2022/03/30 03:42:37;;;;;;;4.30;3.80;;;10.00;1.00;;;;;;5057515;28;20541;-77
2022/03/30 03:45:07;;;;;;;8.03;6.40;;;9.90;1.00;;;;;;5057346;28;20442;-76
2022/03/30 03:47:35;;;;;;;2.97;2.77;;;9.90;1.00;;;;;;5043678;28;20447;-76
2022/03/30 03:50:04;;;;;;;2.47;2.23;;;9.80;1.00;;;;;;5035405;28;20559;-77
2022/03/30 03:52:33;;;;;;;14.63;6.57;;;9.70;1.00;;;;;;5036275;28;20447;-74
2022/03/30 03:55:01;;;;;;;5.00;2.10;;;9.60;1.00;;;;;;5035889;28;20451;-76
2022/03/30 03:57:29;;;;;;;4.63;3.23;;;9.60;1.00;;;;;;5037449;28;20479;-74
2022/03/30 03:59:57;;;;;;;4.10;1.80;;;9.60;1.00;;;;;;5034259;28;20471;-75
2022/03/30 04:02:25;;;;;;;0.60;0.30;;;9.70;1.00;;;;;;5050618;28;20791;-77
2022/03/30 04:04:53;;;;;;;3.27;2.97;;;9.70;1.00;;;;;;5035242;28;20462;-76
2022/03/30 04:07:21;;;;;;;3.03;1.80;;;9.70;1.00;;;;;;5043743;28;20446;-75
2022/03/30 04:09:50;;;;;;;10.33;7.07;;;9.70;1.00;;;;;;5049940;28;20469;-76
2022/03/30 04:12:18;;;;;;;6.00;2.50;;;9.70;1.00;;;;;;5046650;28;20477;-75
2022/03/30 04:14:46;;;;;;;2.73;2.63;;;9.60;1.00;;;;;;5048216;28;20450;-77
2022/03/30 04:17:13;;;;;;;3.30;2.63;;;9.50;1.00;;;;;;5043246;28;20506;-76
2022/03/30 04:19:41;;;;;;;4.47;2.60;;;9.50;1.00;;;;;;5050022;28;20481;-75
2022/03/30 04:22:09;;;;;;;3.17;2.97;;;9.50;1.00;;;;;;5054893;28;20447;-75
2022/03/30 04:24:37;;;;;;;1.00;0.83;;;9.50;1.00;;;;;;5054081;28;20453;-76
2022/03/30 04:27:06;;;;;;;2.83;1.63;;;9.40;1.00;;;;;;5013567;28;20445;-76
2022/03/30 04:29:34;;;;;;;3.67;3.37;;;9.40;1.00;;;;;;5019635;28;20477;-75
2022/03/30 04:32:02;;;;;;;14.40;6.90;;;9.40;1.00;;;;;;5027396;28;20460;-75
2022/03/30 04:34:30;;;;;;;1.37;0.93;;;9.40;1.00;;;;;;5046772;28;20449;-76
2022/03/30 04:36:58;;;;;;;7.17;4.23;;;9.30;1.00;;;;;;5055969;28;20476;-77
2022/03/30 04:39:26;;;;;;;6.60;4.90;;;9.30;1.00;;;;;;5052758;28;20496;-76
2022/03/30 04:41:54;;;;;;;7.40;3.93;;;9.30;1.00;;;;;;5052958;28;20446;-76
2022/03/30 04:44:25;;;;;;;6.87;4.60;;;9.30;1.00;;;;;;5056145;28;20446;-76
2022/03/30 04:46:54;;;;;;;14.87;8.43;;;9.20;1.00;;;;;;5022941;28;20542;-74
2022/03/30 04:49:22;;;;;;;11.17;4.67;;;9.10;1.00;;;;;;5034279;28;20478;-76
2022/03/30 04:51:50;;;;;;;2.40;1.60;;;9.10;1.00;;;;;;5031042;28;20502;-76
2022/03/30 04:54:18;;;;;;;3.80;2.80;;;9.10;1.00;;;;;;5040881;28;20452;-77
2022/03/30 04:56:47;;;;;;;7.57;6.83;;;9.00;1.00;;;;;;5046298;28;20593;-78
2022/03/30 04:59:15;;;;;;;13.40;8.13;;;8.90;1.00;;;;;;5032738;28;20473;-76
2022/03/30 05:01:44;;;;;;;4.83;4.20;;;8.90;1.00;;;;;;5033134;28;20446;-77
2022/03/30 05:04:12;;;;;;;7.37;3.73;;;8.80;1.00;;;;;;5040533;28;20485;-77
2022/03/30 05:06:40;;;;;;;8.10;3.27;;;8.80;1.00;;;;;;5035391;28;20534;-76
2022/03/30 05:09:08;;;;;;;0.70;0.40;;;8.80;1.00;;;;;;5015178;28;20471;-76
2022/03/30 05:11:36;;;;;;;4.23;1.70;;;8.80;1.00;;;;;;5014295;28;20443;-76
2022/03/30 05:14:05;;;;;;;5.53;2.97;;;8.70;1.00;;;;;;5013852;28;20459;-77
2022/03/30 05:16:33;;;;;;;4.97;4.60;;;8.70;1.00;;;;;;5013989;28;20490;-77
2022/03/30 05:19:03;;;;;;;4.93;3.93;;;8.70;1.00;;;;;;5024460;28;20477;-77
2022/03/30 05:21:31;;;;;;;6.53;3.93;;;8.70;1.00;;;;;;5052639;28;20450;-77
2022/03/30 05:23:59;;;;;;;15.47;4.73;;;8.70;1.00;;;;;;5047092;28;20565;-75
2022/03/30 05:26:28;;;;;;;21.60;8.13;;;8.70;1.00;;;;;;5029872;28;20460;-76
2022/03/30 05:28:56;;;;;;;5.50;2.10;;;8.60;1.00;;;;;;5042773;28;20467;-76
2022/03/30 05:31:24;;;;;;;7.23;3.70;;;8.60;1.00;;;;;;5041647;28;20450;-76
2022/03/30 05:33:52;;;;;;;11.30;4.53;;;8.60;1.00;;;;;;5043743;28;20564;-77
2022/03/30 05:36:21;;;;;;;11.10;9.27;;;8.50;1.00;;;;;;5033284;28;20464;-77
2022/03/30 05:38:50;;;;;;;3.67;3.37;;;8.50;1.00;;;;;;5032250;28;20469;-76
2022/03/30 05:41:19;;;;;;;9.70;4.37;;;8.50;1.00;;;;;;5046799;28;20477;-75
2022/03/30 05:43:47;;;;;;;9.83;8.57;;;8.40;1.00;;;;;;5052090;28;20788;-76
2022/03/30 05:46:15;;;;;;;2.00;0.97;;;8.40;1.00;;;;;;5029620;28;20561;-77
2022/03/30 05:48:42;;;;;;;11.73;5.00;;;8.40;1.00;;;;;;5038816;28;20998;-77
2022/03/30 05:51:10;;;;;;;20.23;6.63;;;8.30;1.00;;;;;;5041368;28;20974;-79
2022/03/30 05:53:39;;;;;;;18.27;5.47;;;8.30;1.00;;;;;;5053093;28;20861;-78
2022/03/30 05:56:07;;;;;;;9.40;2.33;;;8.30;1.00;;;;;;5048363;28;20449;-77
2022/03/30 05:58:35;;;;;;;4.13;2.30;;;8.30;1.00;;;;;;5034711;28;20481;-76
2022/03/30 06:01:04;;;;;;;6.93;4.13;;;8.30;1.00;;;;;;5027111;28;20548;-76
2022/03/30 06:03:37;;;;;;;1.87;1.77;;;8.30;1.00;;;;;;5022730;28;20484;-78
2022/03/30 06:06:05;;;;;;;6.00;4.83;;;8.30;1.00;;;;;;5048826;28;20463;-76
2022/03/30 06:08:34;;;;;;;24.80;10.97;;;8.30;1.00;;;;;;5052110;28;20907;-77
2022/03/30 06:11:03;;;;;;;2.53;1.30;;;8.20;1.00;;;;;;5052616;28;20465;-77
2022/03/30 06:13:31;;;;;;;4.10;3.50;;;8.20;1.00;;;;;;5049274;28;20449;-77
2022/03/30 06:15:58;;;;;;;16.03;5.73;;;8.20;1.00;;;;;;5034392;28;20968;-78
2022/03/30 06:18:27;;;;;;;3.73;2.87;;;8.20;1.00;;;;;;5029307;28;21116;-77
2022/03/30 06:20:55;;;;;;;7.17;5.20;;;8.20;1.00;;;;;;5026271;28;20458;-76
2022/03/30 06:23:23;;;;;;;1.23;1.20;;;8.20;1.00;;;;;;5026933;28;20458;-77
2022/03/30 06:25:53;;;;;;;5.77;3.23;;;8.20;1.00;;;;;;5035360;28;20457;-78
2022/03/30 06:28:26;;;;;;;2.23;2.03;;;8.20;1.00;;;;;;5047523;28;20483;-77
2022/03/30 06:30:54;;;;;;;4.17;3.80;;;8.20;1.00;;;;;;5052263;28;20439;-75
2022/03/30 06:33:22;;;;;;;2.80;2.47;;;8.20;1.00;;;;;;5053819;28;20456;-76
2022/03/30 06:35:51;;;;;;;1.00;0.90;;;8.30;1.00;;;;;;5056719;28;21034;-75
2022/03/30 06:38:19;;;;;;;7.50;6.77;;;8.20;1.00;;;;;;5055985;28;20481;-75
2022/03/30 06:40:49;;;;;;;8.17;3.80;;;8.20;1.00;;;;;;5054139;28;20461;-76
2022/03/30 06:43:17;;;;;;;6.60;2.97;;;8.20;1.00;;;;;;5031666;28;20439;-75
2022/03/30 06:45:46;;;;;;;0.70;0.70;;;8.20;1.00;;;;;;5049225;28;20459;-77
2022/03/30 06:48:14;;;;;;;0.60;0.20;;;8.20;1.00;;;;;;5054981;28;20825;-76
2022/03/30 06:50:42;;;;;;;3.57;3.23;;;8.20;1.00;;;;;;5052707;28;20461;-74
2022/03/30 06:53:10;;;;;;;10.00;6.33;;;8.20;1.00;;;;;;5051071;28;20444;-76
2022/03/30 06:55:40;;;;;;;7.50;2.73;;;8.20;1.00;;;;;;5033669;28;20463;-76
2022/03/30 06:58:09;;;;;;;1.40;0.97;;;;;;;;;;5040196;28;20515;-75
2022/03/30 07:00:37;;;;;;;0.60;0.20;;;8.20;1.00;;;;;;5044397;28;20448;-75
2022/03/30 07:03:06;;;;;;;6.63;6.07;;;8.30;1.00;;;;;;5032762;28;20545;-75
2022/03/30 07:05:35;;;;;;;9.10;8.23;;;8.30;1.00;;;;;;5032013;28;20534;-75
2022/03/30 07:10:49;;;;;;;0.60;0.20;;;8.20;1.00;;;;;;5031429;28;20477;-76
2022/03/30 07:13:16;;;;;;;4.10;2.80;;;8.20;1.00;;;;;;5032908;28;20884;-76
2022/03/30 07:15:44;;;;;;;19.87;11.30;;;8.30;1.00;;;;;;5035823;28;20458;-75
2022/03/30 07:18:14;;;;;;;10.50;4.57;;;8.30;1.00;;;;;;5035641;28;20477;-72
2022/03/30 07:20:41;;;;;;;3.33;2.83;;;8.30;1.00;;;;;;5026460;28;20452;-76
2022/03/30 07:23:10;;;;;;;7.70;4.80;;;8.40;1.00;;;;;;5035560;28;20465;-75
2022/03/30 07:25:42;;;;;;;4.23;4.03;;;8.40;1.00;;;;;;5036423;28;20539;-75
2022/03/30 07:28:09;;;;;;;1.60;0.83;;;8.40;1.00;;;;;;5033979;28;20449;-77
2022/03/30 07:30:38;;;;;;;1.00;0.83;;;8.40;1.00;;;;;;5033371;28;20453;-80
2022/03/30 07:33:07;;;;;;;0.60;0.20;;;8.40;1.00;;;;;;5043444;28;20960;-77
2022/03/30 07:35:38;;;;;;;0.97;0.83;;;8.20;1.00;;;;;;5034482;28;20837;-76
2022/03/30 07:38:07;;;;;;;2.10;1.50;;;8.50;1.00;;;;;;5042017;28;20855;-75
2022/03/30 07:40:35;;;;;;;1.80;1.70;;;8.50;1.00;;;;;;5040940;28;20885;-75
2022/03/30 07:43:03;;;;;;;3.90;3.17;;;8.50;1.00;;;;;;5041131;28;20435;-77
2022/03/30 07:45:36;;;;;;;1.63;1.53;;;8.60;1.00;;;;;;5053214;28;20833;-76
2022/03/30 07:48:05;;;;;;;3.03;1.80;;;8.60;1.00;;;;;;5052774;28;20446;-76
2022/03/30 07:50:33;;;;;;;5.93;4.20;;;8.60;1.00;;;;;;5055062;28;21082;-75
2022/03/30 07:53:02;;;;;;;15.03;4.20;;;8.70;1.00;;;;;;5048712;28;20448;-76
2022/03/30 07:55:31;;;;;;;3.57;2.10;;;8.70;1.00;;;;;;5034969;28;20491;-76
2022/03/30 07:57:58;;;;;;;15.10;6.57;;;8.70;1.00;;;;;;5045921;28;20472;-76
2022/03/30 08:00:27;;;;;;;7.73;2.00;;;8.60;1.00;;;;;;5053613;28;20572;-74
2022/03/30 08:02:55;;;;;;;0.70;0.20;;;8.60;1.00;;;;;;5048392;28;20459;-74
2022/03/30 08:05:23;;;;;;;5.63;5.20;;;8.70;1.00;;;;;;5034932;28;21007;-74
2022/03/30 08:07:51;;;;;;;4.00;3.07;;;8.70;1.00;;;;;;5033283;28;20492;-76
2022/03/30 08:10:20;;;;;;;4.77;2.20;;;8.80;1.00;;;;;;5034111;28;20562;-77
2022/03/30 08:12:49;;;;;;;0.80;0.50;;;8.80;1.00;;;;;;5032076;28;20450;-74
2022/03/30 08:15:17;;;;;;;2.50;2.23;;;8.80;1.00;;;;;;5032797;28;20452;-77
2022/03/30 08:17:45;;;;;;;0.70;0.60;;;8.80;1.00;;;;;;5042763;28;20912;-77
2022/03/30 08:22:25;;;;;;;1.57;1.43;;;8.90;1.00;;;;;;5033734;28;20566;-75
2022/03/30 08:23:00;;;;;;;10.60;6.00;;;8.90;1.00;;;;;;5034149;28;20453;-77
2022/03/30 08:25:30;;;;;;;6.07;5.47;;;8.90;1.00;;;;;;5036257;28;20550;-76
2022/03/30 08:27:58;;;;;;;3.87;1.83;;;9.00;1.00;;;;;;5041514;28;20546;-74
2022/03/30 08:30:26;;;;;;;2.83;1.13;;;8.90;1.00;;;;;;5042782;28;21004;-76
2022/03/30 08:32:54;;;;;;;0.60;0.10;;;9.00;1.00;;;;;;5044475;28;20553;-78
2022/03/30 08:35:23;;;;;;;9.63;2.83;;;9.00;1.00;;;;;;5052220;28;20458;-75
2022/03/30 08:37:51;;;;;;;4.70;3.33;;;9.10;1.00;;;;;;5046647;28;20479;-73
2022/03/30 08:40:19;;;;;;;3.93;2.47;;;9.20;1.00;;;;;;5037701;28;20878;-74
2022/03/30 08:42:49;;;;;;;4.57;2.93;;;9.20;1.00;;;;;;5033290;28;20530;-74
2022/03/30 08:45:20;;;;;;;6.47;4.23;;;9.30;1.00;;;;;;5041410;28;20548;-72
2022/03/30 08:47:48;;;;;;;1.90;1.80;;;9.30;1.00;;;;;;5048708;28;20456;-75
2022/03/30 08:50:16;;;;;;;3.33;0.87;;;9.50;1.00;;;;;;5043447;28;20494;-77
2022/03/30 08:52:45;;;;;;;6.70;4.47;;;9.50;1.00;;;;;;5045655;28;20450;-74
2022/03/30 08:55:13;;;;;;;4.17;3.77;;;9.60;1.00;;;;;;5046588;28;20544;-73
2022/03/30 08:57:41;;;;;;;10.67;5.70;;;9.70;1.00;;;;;;5036944;28;20454;-75
2022/03/30 09:00:16;;;;;;;6.13;5.50;;;9.80;1.00;;;;;;5044342;28;20488;-76
2022/03/30 09:02:46;;;;;;;4.83;2.77;;;9.80;1.00;;;;;;5047387;28;20446;-76
2022/03/30 09:05:18;;;;;;;11.20;3.93;;;9.80;1.00;;;;;;5049462;28;20462;-77
2022/03/30 09:07:49;;;;;;;4.93;3.40;;;9.80;1.00;;;;;;5030142;28;20467;-76
2022/03/30 09:10:20;;;;;;;0.77;0.57;;;9.80;1.00;;;;;;5050758;28;20835;-74
2022/03/30 09:12:49;;;;;;;2.93;0.63;;;9.90;1.00;;;;;;5037724;28;20542;-76
2022/03/30 09:15:20;;;;;;;3.37;1.40;;;9.90;1.00;;;;;;5036967;28;20558;-75
2022/03/30 09:17:58;;;;;;;5.43;3.60;;;9.90;1.00;;;;;;5043736;28;20458;-75
2022/03/30 09:20:34;;;;;;;2.90;2.60;;;9.80;1.00;;;;;;5012255;28;20906;-75
2022/03/30 09:23:02;;;;;;;2.70;2.53;;;9.90;1.00;;;;;;5012638;28;20566;-76
2022/03/30 09:25:44;;;;;;;0.60;0.10;;;9.90;1.00;;;;;;5029290;28;20470;-75
2022/03/30 09:28:12;;;;;;;0.73;0.67;;;10.00;1.00;;;;;;5033807;28;20546;-75
2022/03/30 09:30:42;;;;;;;1.30;0.80;;;9.90;1.00;;;;;;5032072;28;20443;-75
2022/03/30 09:33:11;;;;;;;2.70;1.03;;;9.90;1.00;;;;;;5032896;28;20447;-76
2022/03/30 09:35:42;;;;;;;1.43;0.40;;;9.90;1.00;;;;;;5032103;28;20439;-76
2022/03/30 09:38:12;;;;;;;10.57;4.77;;;;;;;;;;5032428;28;20860;-75
2022/03/30 09:40:43;;;;;;;6.53;3.70;;;9.90;1.00;;;;;;5033738;28;21156;-75
2022/03/30 09:43:23;;;;;;;0.83;0.83;;;9.90;1.00;;;;;;5036959;28;20474;-75
2022/03/30 09:46:05;;;;;;;3.23;2.93;;;9.90;1.00;;;;;;5039931;28;20549;-75
2022/03/30 09:48:35;;;;;;;0.80;0.67;;;10.00;1.00;;;;;;5041305;28;20850;-72
2022/03/30 09:51:06;;;;;;;1.87;1.53;;;10.00;1.00;;;;;;5039908;28;20793;-75
2022/03/30 09:53:36;;;;;;;31.97;8.70;;;10.00;1.00;;;;;;5037174;28;20442;-75
2022/03/30 09:56:06;;;;;;;5.40;2.00;;;10.00;1.00;;;;;;5039345;28;20820;-76
2022/03/30 09:58:36;;;;;;;3.10;2.90;;;10.10;1.00;;;;;;5039548;28;20489;-76
2022/03/30 10:01:15;;;;;;;5.30;1.40;;;10.10;1.00;;;;;;5038533;28;20494;-77
2022/03/30 10:03:46;;;;;;;0.60;0.20;;;10.20;1.00;;;;;;5038704;28;20438;-77
2022/03/30 10:06:16;;;;;;;0.70;0.43;;;10.30;1.00;;;;;;5050921;28;20533;-75
2022/03/30 10:08:47;;;;;;;1.90;0.97;;;10.50;1.00;;;;;;5051566;28;20462;-76
2022/03/30 10:11:16;;;;;;;0.90;0.73;;;10.50;1.00;;;;;;5054440;28;20454;-76
2022/03/30 10:13:46;;;;;;;1.83;1.33;;;10.60;1.00;;;;;;5047845;28;20463;-76
2022/03/30 10:16:36;;;;;;;2.83;1.90;;;;;;;;;;5031572;28;20455;-74
2022/03/30 10:19:07;;;;;;;5.20;2.37;;;10.60;1.00;;;;;;5041141;28;21059;-76
2022/03/30 10:21:44;;;;;;;1.63;1.03;;;10.60;1.00;;;;;;5046749;28;20461;-76
2022/03/30 10:24:50;;;;;;;4.53;4.27;;;10.50;1.00;;;;;;5031529;28;20439;-76
2022/03/30 10:27:28;;;;;;;6.90;3.77;;;10.60;1.00;;;;;;4996327;28;20447;-74
2022/03/30 10:30:00;;;;;;;0.93;0.50;;;10.50;1.00;;;;;;5034107;28;20553;-74
2022/03/30 10:32:34;;;;;;;1.00;0.93;;;10.60;1.00;;;;;;5037153;28;20940;-78
2022/03/30 10:35:12;;;;;;;0.70;0.37;;;10.50;1.00;;;;;;5035891;28;20500;-76
2022/03/30 10:37:43;;;;;;;0.60;0.10;;;10.60;1.00;;;;;;5031512;28;20490;-74
2022/03/30 10:40:17;;;;;;;1.00;0.80;;;10.60;1.00;;;;;;5036593;28;20479;-75
2022/03/30 10:43:06;;;;;;;1.47;0.47;;;10.60;1.00;;;;;;5039759;28;20484;-74
2022/03/30 10:45:41;;;;;;;0.60;0.10;;;10.60;1.00;;;;;;5044820;28;20443;-74
2022/03/30 10:48:17;;;;;;;0.60;0.10;;;10.80;1.00;;;;;;5034957;28;20466;-76
2022/03/30 10:50:51;;;;;;;1.57;0.83;;;10.80;1.00;;;;;;5056716;28;20478;-74
2022/03/30 10:53:41;;;;;;;2.93;2.73;;;10.90;1.00;;;;;;5048002;28;20430;-75
2022/03/30 10:56:34;;;;;;;8.27;5.53;;;11.00;1.00;;;;;;5049054;28;20447;-75
2022/03/30 10:59:11;;;;;;;5.10;2.53;;;11.10;1.00;;;;;;5042547;28;20462;-75
2022/03/30 11:01:41;;;;;;;0.70;0.70;;;11.10;1.00;;;;;;5046344;28;20478;-76
2022/03/30 11:04:22;;;;;;;2.03;1.33;;;11.00;1.00;;;;;;5039867;28;20451;-75
2022/03/30 11:07:43;;;;;;;1.73;1.37;;;11.10;1.00;;;;;;5019542;28;20443;-76
2022/03/30 11:10:25;;;;;;;1.50;1.40;;;11.20;1.00;;;;;;5039986;28;20455;-75
2022/03/30 11:13:05;;;;;;;7.27;5.70;;;11.30;1.00;;;;;;5033597;28;20441;-75
2022/03/30 11:16:06;;;;;;;3.30;2.97;;;11.50;1.00;;;;;;5038856;28;20442;-76
2022/03/30 11:18:34;;;;;;;1.10;1.10;;;11.20;1.00;;;;;;5037104;28;20463;-76
2022/03/30 11:21:19;;;;;;;0.70;0.43;;;11.20;1.00;;;;;;5037577;28;20470;-75
2022/03/30 11:24:11;;;;;;;0.70;0.50;;;11.30;1.00;;;;;;5025574;28;20845;-75
2022/03/30 11:27:21;;;;;;;0.60;0.10;;;11.40;1.00;;;;;;5036121;28;20447;-75
2022/03/30 11:30:05;;;;;;;1.07;0.97;;;11.50;1.00;;;;;;5035522;28;20845;-76
2022/03/30 11:33:08;;;;;;;1.77;1.67;;;11.50;1.00;;;;;;5047421;28;20521;-75
2022/03/30 11:35:42;;;;;;;3.80;2.93;;;11.50;1.00;;;;;;5034756;28;20443;-76
2022/03/30 11:38:21;;;;;;;0.80;0.53;;;11.50;1.00;;;;;;5038456;28;20463;-75
2022/03/30 11:40:51;;;;;;;0.60;0.47;;;11.50;1.00;;;;;;5051553;28;20470;-76
2022/03/30 11:43:23;;;;;;;1.00;0.83;;;11.50;1.00;;;;;;5041442;28;20458;-75
2022/03/30 11:46:02;;;;;;;5.93;4.37;;;11.70;1.00;;;;;;5043103;28;20538;-76
2022/03/30 11:48:40;;;;;;;3.00;2.70;;;11.90;1.00;;;;;;5041687;28;20471;-76
2022/03/30 11:51:17;;;;;;;2.93;2.53;;;11.90;1.00;;;;;;5030775;28;20428;-76
2022/03/30 11:53:46;;;;;;;2.00;1.53;;;12.00;1.00;;;;;;5037872;28;20442;-76
2022/03/30 11:56:14;;;;;;;5.20;2.17;;;11.90;1.00;;;;;;5033814;28;20472;-75
2022/03/30 11:58:45;;;;;;;0.60;0.10;;;11.70;1.00;;;;;;5031971;28;20460;-76
2022/03/30 12:01:17;;;;;;;0.60;0.20;;;11.60;1.00;;;;;;5032055;28;20479;-75
2022/03/30 12:03:53;;;;;;;1.10;0.90;;;11.70;1.00;;;;;;5033342;28;21120;-74
2022/03/30 12:06:21;;;;;;;3.33;2.87;;;11.60;1.00;;;;;;5039999;28;21102;-76
2022/03/30 12:08:52;;;;;;;6.20;2.20;;;11.50;1.00;;;;;;5048669;28;20462;-76
2022/03/30 12:11:21;;;;;;;6.50;5.30;;;11.50;1.00;;;;;;5054483;28;20445;-75
2022/03/30 12:13:54;;;;;;;1.70;1.10;;;11.40;1.00;;;;;;5045948;28;20498;-76
2022/03/30 12:16:23;;;;;;;2.93;1.60;;;11.50;1.00;;;;;;5044566;28;20445;-76
2022/03/30 12:18:53;;;;;;;3.07;1.90;;;11.60;1.00;;;;;;5034747;28;21201;-76
2022/03/30 12:21:22;;;;;;;0.60;0.10;;;11.60;1.00;;;;;;5041288;28;20505;-75
2022/03/30 12:23:53;;;;;;;3.37;1.90;;;11.60;1.00;;;;;;5051671;28;20451;-77
2022/03/30 12:26:41;;;;;;;3.23;2.00;;;11.60;1.00;;;;;;5036705;28;20439;-77
2022/03/30 12:29:12;;;;;;;8.80;2.70;;;11.50;1.00;;;;;;5050435;28;20471;-77
2022/03/30 12:31:42;;;;;;;0.70;0.50;;;11.50;1.00;;;;;;5048258;28;20511;-77
2022/03/30 12:34:11;;;;;;;0.60;0.20;;;11.50;1.00;;;;;;5049854;28;20804;-77
2022/03/30 12:36:43;;;;;;;5.67;1.33;;;11.50;1.00;;;;;;5035343;28;20933;-76
2022/03/30 12:39:21;;;;;;;0.60;0.10;;;11.70;1.00;;;;;;5042537;28;20467;-76
2022/03/30 12:41:59;;;;;;;4.73;2.80;;;11.80;1.00;;;;;;5056357;28;20481;-75
2022/03/30 12:44:29;;;;;;;0.60;0.10;;;11.80;1.00;;;;;;5054376;28;20882;-74
2022/03/30 12:47:01;;;;;;;0.67;0.47;;;11.80;1.00;;;;;;5046469;28;20593;-75
2022/03/30 12:49:38;;;;;;;1.47;0.60;;;11.80;1.00;;;;;;5053310;28;20473;-74
2022/03/30 12:52:08;;;;;;;7.40;1.30;;;11.80;1.00;;;;;;5053590;28;20438;-74
2022/03/30 12:54:37;;;;;;;1.67;0.83;;;11.80;1.00;;;;;;5042600;28;20529;-76
2022/03/30 12:57:05;;;;;;;0.60;0.10;;;11.90;1.00;;;;;;5036166;28;20466;-76
2022/03/30 12:59:34;;;;;;;1.10;1.03;;;12.00;1.00;;;;;;5041672;28;20490;-76
2022/03/30 13:02:17;;;;;;;0.80;0.80;;;12.10;1.00;;;;;;5052680;28;21044;-75
2022/03/30 13:04:49;;;;;;;0.70;0.33;;;12.10;1.00;;;;;;5035285;28;20907;-77
2022/03/30 13:07:21;;;;;;;4.60;3.00;;;12.20;1.00;;;;;;5037405;28;20947;-75
2022/03/30 13:10:12;;;;;;;2.03;1.80;;;12.10;1.00;;;;;;5046827;28;20463;-76
2022/03/30 13:12:42;;;;;;;0.90;0.73;;;12.00;1.00;;;;;;5034460;28;20463;-76
2022/03/30 13:15:13;;;;;;;0.60;0.10;;;12.10;1.00;;;;;;5042309;28;20486;-76
2022/03/30 13:18:01;;;;;;;3.17;1.23;;;12.20;99.90;;;;;;5029228;28;20491;-76
2022/03/30 13:20:31;;;;;;;1.83;1.73;;;12.30;99.90;;;;;;5041715;28;20471;-75
2022/03/30 13:23:01;;;;;;;4.47;2.37;;;12.40;99.90;;;;;;5032160;28;20462;-76
2022/03/30 13:25:32;;;;;;;0.70;0.57;;;12.30;99.90;;;;;;5041264;28;20933;-75
2022/03/30 13:28:03;;;;;;;0.60;0.20;;;12.30;99.90;;;;;;5042374;28;20481;-75
2022/03/30 13:30:32;;;;;;;1.00;0.20;;;12.30;99.90;;;;;;5042226;28;20984;-75